createdAt,value
2023-04-14T00:00:38.421Z,99025.06
2023-04-14T00:03:06.405Z,99023.63
2023-04-14T00:05:34.391Z,99017.06
2023-04-14T00:08:02.530Z,99019.13
2023-04-14T00:10:29.835Z,99009.09
2023-04-14T00:12:57.162Z,99000.78
2023-04-14T00:15:24.486Z,99019.38
2023-04-14T00:17:52.528Z,99028.94
2023-04-14T00:20:19.880Z,99012.38
2023-04-14T00:22:47.142Z,99012.09
2023-04-14T00:25:14.500Z,99013.56
2023-04-14T00:27:41.777Z,99011.56
2023-04-14T00:30:09.501Z,99012.03
2023-04-14T00:32:36.822Z,99019.06
2023-04-14T00:35:04.484Z,99009.34
2023-04-14T00:37:31.767Z,99014.09
2023-04-14T00:40:00.692Z,99006.63
2023-04-14T00:42:28.057Z,99010.56
2023-04-14T00:44:55.383Z,99004.66
2023-04-14T00:47:23.300Z,98993.94
2023-04-14T00:49:51.318Z,99005.16
2023-04-14T00:52:18.931Z,99011.53
2023-04-14T00:54:46.204Z,98993.75
2023-04-14T00:57:13.576Z,98996.03
2023-04-14T00:59:41.190Z,98998.56
2023-04-14T01:02:09.095Z,98993.88
2023-04-14T01:04:49.686Z,98979.03
2023-04-14T01:07:21.348Z,98992.88
2023-04-14T01:09:48.590Z,98979.31
2023-04-14T01:12:26.782Z,98983.03
2023-04-14T01:15:03.096Z,98966.72
2023-04-14T01:17:38.764Z,98949.31
2023-04-14T01:20:22.834Z,98966.06
2023-04-14T01:22:55.658Z,98957.16
2023-04-14T01:25:31.761Z,98970.81
2023-04-14T01:28:31.256Z,98967.63
2023-04-14T01:31:10.548Z,98972.56
2023-04-14T01:33:40.146Z,98957.47
2023-04-14T01:36:10.498Z,98956.16
2023-04-14T01:38:37.761Z,98962.31
2023-04-14T01:41:06.733Z,98956.94
2023-04-14T01:43:35.268Z,98959.78
2023-04-14T01:46:07.246Z,98953.25
2023-04-14T01:48:34.570Z,98942.09
2023-04-14T01:51:02.314Z,98951.00
2023-04-14T01:53:31.004Z,98952.63
2023-04-14T01:55:59.752Z,98939.78
2023-04-14T01:58:27.155Z,98958.38
2023-04-14T02:00:55.003Z,98952.00
2023-04-14T02:03:22.374Z,98947.59
2023-04-14T02:05:51.310Z,98930.59
2023-04-14T02:08:18.626Z,98943.03
2023-04-14T02:10:48.290Z,98933.75
2023-04-14T02:13:15.783Z,98930.44
2023-04-14T02:15:43.120Z,98935.00
2023-04-14T02:18:11.412Z,98946.22
2023-04-14T02:20:44.829Z,98932.75
2023-04-14T02:23:12.221Z,98935.72
2023-04-14T02:25:41.450Z,98916.47
2023-04-14T02:28:18.031Z,98939.50
2023-04-14T02:30:51.824Z,98940.97
2023-04-14T02:33:22.078Z,98933.94
2023-04-14T02:35:53.099Z,98929.69
2023-04-14T02:38:44.626Z,98931.13
2023-04-14T02:41:16.950Z,98926.69
2023-04-14T02:44:07.664Z,98924.00
2023-04-14T02:46:39.691Z,98899.81
2023-04-14T02:49:07.322Z,98904.38
2023-04-14T02:51:36.012Z,98906.63
2023-04-14T02:54:04.527Z,98902.28
2023-04-14T02:56:40.635Z,98910.47
2023-04-14T02:59:07.913Z,98897.09
2023-04-14T03:01:38.032Z,98910.03
2023-04-14T03:04:05.467Z,98897.09
2023-04-14T03:06:34.530Z,98897.09
2023-04-14T03:09:02.071Z,98889.34
2023-04-14T03:11:30.851Z,98894.34
2023-04-14T03:13:58.233Z,98893.38
2023-04-14T03:16:26.242Z,98897.66
2023-04-14T03:18:54.510Z,98890.69
2023-04-14T03:21:23.381Z,98889.16
2023-04-14T03:23:51.292Z,98889.28
2023-04-14T03:26:19.576Z,98902.91
2023-04-14T03:28:50.862Z,98883.72
2023-04-14T03:31:19.117Z,98874.19
2023-04-14T03:33:55.799Z,98877.69
2023-04-14T03:36:26.143Z,98883.31
2023-04-14T03:38:59.872Z,98894.19
2023-04-14T03:41:28.836Z,98882.50
2023-04-14T03:43:57.116Z,98863.22
2023-04-14T03:46:24.968Z,98862.38
2023-04-14T03:48:53.702Z,98850.31
2023-04-14T03:51:22.491Z,98835.25
2023-04-14T03:53:49.896Z,98842.72
2023-04-14T03:56:17.643Z,98845.47
2023-04-14T03:58:47.325Z,98856.72
2023-04-14T04:01:16.711Z,98847.59
2023-04-14T04:03:44.247Z,98854.09
2023-04-14T04:06:11.976Z,98842.91
2023-04-14T04:08:39.212Z,98855.28
2023-04-14T04:11:06.674Z,98847.94
2023-04-14T04:13:34.255Z,98858.69
2023-04-14T04:16:01.928Z,98853.16
2023-04-14T04:18:29.273Z,98847.22
2023-04-14T04:20:56.996Z,98853.75
2023-04-14T04:23:24.989Z,98840.28
2023-04-14T04:25:52.299Z,98853.66
2023-04-14T04:28:32.605Z,98859.53
2023-04-14T04:31:00.749Z,98838.41
2023-04-14T04:33:30.542Z,98841.78
2023-04-14T04:35:58.679Z,98839.09
2023-04-14T04:38:32.369Z,98855.25
2023-04-14T04:41:00.430Z,98862.97
2023-04-14T04:43:29.769Z,98864.25
2023-04-14T04:46:06.778Z,98861.31
2023-04-14T04:48:35.619Z,98878.19
2023-04-14T04:51:04.548Z,98874.31
2023-04-14T04:53:31.817Z,98867.50
2023-04-14T04:55:59.114Z,98874.69
2023-04-14T04:58:26.414Z,98876.22
2023-04-14T05:00:54.760Z,98871.00
2023-04-14T05:03:22.273Z,98875.59
2023-04-14T05:05:49.704Z,98859.00
2023-04-14T05:08:17.083Z,98878.94
2023-04-14T05:10:44.532Z,98871.38
2023-04-14T05:13:11.893Z,98879.88
2023-04-14T05:15:39.319Z,98857.06
2023-04-14T05:18:06.620Z,98878.38
2023-04-14T05:20:35.090Z,98875.69
2023-04-14T05:23:02.786Z,98885.38
2023-04-14T05:25:30.111Z,98877.38
2023-04-14T05:27:57.394Z,98867.75
2023-04-14T05:30:24.869Z,98870.81
2023-04-14T05:32:52.494Z,98869.72
2023-04-14T05:35:19.922Z,98873.97
2023-04-14T05:37:47.294Z,98860.25
2023-04-14T05:40:14.665Z,98861.13
2023-04-14T05:42:42.849Z,98852.22
2023-04-14T05:45:10.765Z,98849.31
2023-04-14T05:47:39.791Z,98850.56
2023-04-14T05:50:08.067Z,98847.66
2023-04-14T05:52:35.547Z,98853.91
2023-04-14T05:55:03.031Z,98835.78
2023-04-14T05:57:30.646Z,98854.03
2023-04-14T05:59:58.412Z,98851.41
2023-04-14T06:02:26.249Z,98841.88
2023-04-14T06:04:53.824Z,98834.25
2023-04-14T06:07:21.423Z,98854.47
2023-04-14T06:09:48.849Z,98821.22
2023-04-14T06:12:16.549Z,98822.47
2023-04-14T06:14:44.069Z,98853.13
2023-04-14T06:17:11.468Z,98839.66
2023-04-14T06:19:39.281Z,98828.50
2023-04-14T06:22:07.207Z,98818.50
2023-04-14T06:24:35.020Z,98812.22
2023-04-14T06:27:05.141Z,98847.50
2023-04-14T06:29:32.482Z,98821.31
2023-04-14T06:32:00.660Z,98852.78
2023-04-14T06:34:28.025Z,98843.03
2023-04-14T06:36:56.755Z,98852.06
2023-04-14T06:39:27.519Z,98843.88
2023-04-14T06:42:01.759Z,98832.19
2023-04-14T06:44:45.915Z,98805.88
2023-04-14T06:47:23.653Z,98844.75
2023-04-14T06:49:51.184Z,98833.94
2023-04-14T06:52:18.591Z,98824.66
2023-04-14T06:54:46.068Z,98815.81
2023-04-14T06:57:13.466Z,98830.63
2023-04-14T06:59:40.969Z,98801.22
2023-04-14T07:02:08.432Z,98823.44
2023-04-14T07:04:37.599Z,98779.38
2023-04-14T07:07:05.225Z,98813.09
2023-04-14T07:09:32.616Z,98796.88
2023-04-14T07:12:00.075Z,98815.09
2023-04-14T07:14:27.581Z,98792.63
2023-04-14T07:16:55.054Z,98780.25
2023-04-14T07:19:22.431Z,98802.72
2023-04-14T07:21:49.840Z,98765.94
2023-04-14T07:24:17.169Z,98810.50
2023-04-14T07:26:44.596Z,98769.47
2023-04-14T07:29:13.259Z,98776.84
2023-04-14T07:31:41.007Z,98767.16
2023-04-14T07:34:08.781Z,98792.31
2023-04-14T07:36:36.857Z,98790.38
2023-04-14T07:39:11.879Z,98796.56
2023-04-14T07:41:39.296Z,98769.84
2023-04-14T07:44:06.851Z,98787.28
2023-04-14T07:46:34.314Z,98765.59
2023-04-14T07:49:01.841Z,98755.53
2023-04-14T07:51:29.238Z,98775.25
2023-04-14T07:53:56.833Z,98780.28
2023-04-14T07:56:24.410Z,98781.06
2023-04-14T07:58:51.734Z,98778.75
2023-04-14T08:01:19.154Z,98790.78
2023-04-14T08:03:46.724Z,98786.47
2023-04-14T08:06:14.133Z,98792.69
2023-04-14T08:08:43.034Z,98783.78
2023-04-14T08:11:10.566Z,98777.56
2023-04-14T08:13:38.203Z,98781.84
2023-04-14T08:16:06.047Z,98767.50
2023-04-14T08:18:33.481Z,98780.31
2023-04-14T08:21:00.898Z,98775.66
2023-04-14T08:23:28.474Z,98767.13
2023-04-14T08:25:55.918Z,98765.56
2023-04-14T08:28:23.325Z,98736.53
2023-04-14T08:30:50.795Z,98739.63
2023-04-14T08:33:18.212Z,98728.81
2023-04-14T08:35:45.727Z,98768.66
2023-04-14T08:38:16.297Z,98760.88
2023-04-14T08:40:43.952Z,98745.06
2023-04-14T08:43:13.855Z,98752.38
2023-04-14T08:45:42.869Z,98766.31
2023-04-14T08:48:10.251Z,98725.28
2023-04-14T08:50:38.350Z,98735.31
2023-04-14T08:53:06.750Z,98765.09
2023-04-14T08:55:34.245Z,98762.72
2023-04-14T08:58:02.382Z,98746.81
2023-04-14T09:00:31.061Z,98757.22
2023-04-14T09:02:59.059Z,98755.97
2023-04-14T09:05:27.118Z,98750.50
2023-04-14T09:07:54.478Z,98755.13
2023-04-14T09:10:22.857Z,98727.38
2023-04-14T09:12:50.369Z,98745.16
2023-04-14T09:15:17.838Z,98754.72
2023-04-14T09:17:45.253Z,98747.88
2023-04-14T09:20:36.567Z,98756.75
2023-04-14T09:23:00.629Z,98755.59
2023-04-14T09:25:27.952Z,98759.81
2023-04-14T09:27:55.314Z,98749.69
2023-04-14T09:30:22.645Z,98729.59
2023-04-14T09:32:53.962Z,98756.69
2023-04-14T09:35:21.347Z,98761.28
2023-04-14T09:37:48.934Z,98766.28
2023-04-14T09:40:29.217Z,98748.13
2023-04-14T09:42:56.694Z,98745.00
2023-04-14T09:45:43.768Z,98763.88
2023-04-14T09:48:12.983Z,98752.53
2023-04-14T09:50:57.306Z,98749.94
2023-04-14T09:53:32.138Z,98744.31
2023-04-14T09:56:02.520Z,98761.38
2023-04-14T09:58:31.743Z,98752.09
2023-04-14T10:00:59.571Z,98743.78
2023-04-14T10:03:34.918Z,98763.22
2023-04-14T10:06:05.670Z,98763.81
2023-04-14T10:08:34.700Z,98767.97
2023-04-14T10:11:27.597Z,98765.16
2023-04-14T10:13:59.301Z,98768.03
2023-04-14T10:16:27.513Z,98759.63
2023-04-14T10:18:55.042Z,98764.13
2023-04-14T10:21:23.135Z,98758.09
2023-04-14T10:23:51.183Z,98756.28
2023-04-14T10:26:19.113Z,98753.56
2023-04-14T10:28:51.089Z,98760.63
2023-04-14T10:31:34.980Z,98764.78
2023-04-14T10:34:13.788Z,98762.59
2023-04-14T10:36:43.963Z,98770.97
2023-04-14T10:39:12.189Z,98759.56
2023-04-14T10:41:49.907Z,98753.19
2023-04-14T10:44:34.687Z,98752.47
2023-04-14T10:47:04.771Z,98763.25
2023-04-14T10:49:33.042Z,98760.97
2023-04-14T10:52:09.658Z,98759.25
2023-04-14T10:54:53.456Z,98763.44
2023-04-14T10:57:24.958Z,98756.00
2023-04-14T11:00:01.504Z,98766.84
2023-04-14T11:02:30.657Z,98770.56
2023-04-14T11:05:10.322Z,98768.06
2023-04-14T11:07:54.522Z,98763.97
2023-04-14T11:10:22.002Z,98764.06
2023-04-14T11:12:55.518Z,98769.84
2023-04-14T11:15:23.184Z,98767.91
2023-04-14T11:17:50.923Z,98776.16
2023-04-14T11:20:19.746Z,98781.66
2023-04-14T11:22:49.121Z,98775.44
2023-04-14T11:25:17.538Z,98780.88
2023-04-14T11:27:45.263Z,98777.28
2023-04-14T11:30:16.660Z,98782.25
2023-04-14T11:32:54.076Z,98783.03
2023-04-14T11:35:26.136Z,98785.75
2023-04-14T11:37:57.334Z,98782.25
2023-04-14T11:40:26.614Z,98789.34
2023-04-14T11:42:58.049Z,98778.56
2023-04-14T11:45:29.195Z,98781.91
2023-04-14T11:48:00.938Z,98788.09
2023-04-14T11:50:31.476Z,98798.78
2023-04-14T11:53:00.067Z,98791.81
2023-04-14T11:55:27.644Z,98798.00
2023-04-14T11:57:58.038Z,98797.19
2023-04-14T12:00:25.491Z,98798.09
2023-04-14T12:02:53.032Z,98793.53
2023-04-14T12:05:22.691Z,98790.19
2023-04-14T12:07:50.336Z,98798.63
2023-04-14T12:10:17.871Z,98805.53
2023-04-14T12:12:45.204Z,98798.75
2023-04-14T12:15:13.562Z,98809.22
2023-04-14T12:17:41.520Z,98808.13
2023-04-14T12:20:16.082Z,98816.78
2023-04-14T12:22:43.402Z,98813.38
2023-04-14T12:25:12.361Z,98816.59
2023-04-14T12:27:39.651Z,98811.19
2023-04-14T12:30:07.656Z,98818.19
2023-04-14T12:32:41.072Z,98812.03
2023-04-14T12:35:08.866Z,98815.56
2023-04-14T12:37:38.669Z,98810.97
2023-04-14T12:40:07.019Z,98813.34
2023-04-14T12:42:47.748Z,98821.53
2023-04-14T12:45:16.176Z,98808.31
2023-04-14T12:47:53.996Z,98813.84
2023-04-14T12:50:28.655Z,98794.94
2023-04-14T12:53:00.110Z,98804.63
2023-04-14T12:55:29.800Z,98800.34
2023-04-14T12:57:58.491Z,98810.44
2023-04-14T13:00:29.884Z,98795.00
2023-04-14T13:02:57.424Z,98799.69
2023-04-14T13:05:24.827Z,98800.06
2023-04-14T13:07:52.075Z,98803.91
2023-04-14T13:10:19.417Z,98805.09
2023-04-14T13:12:46.764Z,98806.63
2023-04-14T13:16:10.314Z,98798.91
2023-04-14T13:18:01.471Z,98801.59
2023-04-14T13:20:31.227Z,98782.63
2023-04-14T13:22:58.489Z,98793.09
2023-04-14T13:25:25.894Z,98790.38
2023-04-14T13:27:53.238Z,98790.38
2023-04-14T13:30:20.714Z,98790.78
2023-04-14T13:32:48.024Z,98791.16
2023-04-14T13:35:15.542Z,98778.38
2023-04-14T13:37:42.980Z,98760.97
2023-04-14T13:40:10.522Z,98787.66
2023-04-14T13:42:40.264Z,98764.44
2023-04-14T13:45:20.006Z,98789.59
2023-04-14T13:47:48.672Z,98795.78
2023-04-14T13:50:19.276Z,98772.56
2023-04-14T13:53:10.215Z,98768.66
2023-04-14T13:55:49.639Z,98777.94
2023-04-14T13:58:21.519Z,98762.47
2023-04-14T14:00:52.860Z,98767.88
2023-04-14T14:03:27.378Z,98770.22
2023-04-14T14:05:57.091Z,98773.28
2023-04-14T14:08:24.462Z,98766.72
2023-04-14T14:10:54.597Z,98766.34
2023-04-14T14:13:24.743Z,98754.31
2023-04-14T14:15:54.035Z,98776.78
2023-04-14T14:18:21.849Z,98771.72
2023-04-14T14:20:54.212Z,98778.72
2023-04-14T14:23:26.801Z,98767.88
2023-04-14T14:25:55.637Z,98785.69
2023-04-14T14:28:23.181Z,98780.25
2023-04-14T14:30:50.560Z,98791.84
2023-04-14T14:33:17.878Z,98781.41
2023-04-14T14:35:45.133Z,98786.03
2023-04-14T14:38:12.451Z,98784.44
2023-04-14T14:40:41.328Z,98787.94
2023-04-14T14:43:08.627Z,98789.47
2023-04-14T14:45:35.978Z,98785.63
2023-04-14T14:48:04.000Z,98780.94
2023-04-14T14:50:31.345Z,98767.38
2023-04-14T14:52:58.683Z,98767.78
2023-04-14T14:55:27.324Z,98784.06
2023-04-14T14:57:54.613Z,98772.06
2023-04-14T15:00:21.902Z,98782.97
2023-04-14T15:02:49.553Z,98775.22
2023-04-14T15:05:17.178Z,98781.75
2023-04-14T15:07:44.847Z,98779.00
2023-04-14T15:10:12.111Z,98773.22
2023-04-14T15:12:39.392Z,98773.19
2023-04-14T15:15:07.490Z,98780.91
2023-04-14T15:17:34.756Z,98770.38
2023-04-14T15:20:04.967Z,98790.91
2023-04-14T15:22:32.434Z,98792.41
2023-04-14T15:24:59.745Z,98791.22
2023-04-14T15:27:27.051Z,98790.03
2023-04-14T15:29:54.797Z,98780.75
2023-04-14T15:32:25.308Z,98793.16
2023-04-14T15:34:53.918Z,98793.09
2023-04-14T15:37:21.400Z,98787.31
2023-04-14T15:39:48.643Z,98795.81
2023-04-14T15:42:16.067Z,98799.31
2023-04-14T15:44:43.345Z,98793.09
2023-04-14T15:47:10.763Z,98792.31
2023-04-14T15:49:38.043Z,98804.69
2023-04-14T15:52:06.033Z,98818.19
2023-04-14T15:54:33.754Z,98820.09
2023-04-14T15:57:02.366Z,98832.38
2023-04-14T15:59:29.909Z,98835.34
2023-04-14T16:01:58.001Z,98830.50
2023-04-14T16:04:25.651Z,98829.53
2023-04-14T16:06:56.932Z,98841.81
2023-04-14T16:09:24.271Z,98831.66
2023-04-14T16:11:52.637Z,98825.75
2023-04-14T16:14:19.901Z,98848.03
2023-04-14T16:16:47.404Z,98850.63
2023-04-14T16:19:16.186Z,98857.66
2023-04-14T16:21:43.492Z,98864.53
2023-04-14T16:24:10.755Z,98860.50
2023-04-14T16:26:38.545Z,98871.63
2023-04-14T16:29:06.059Z,98871.84
2023-04-14T16:31:33.470Z,98860.59
2023-04-14T16:34:01.077Z,98880.66
2023-04-14T16:36:29.134Z,98889.53
2023-04-14T16:38:56.621Z,98894.94
2023-04-14T16:41:23.902Z,98885.50
2023-04-14T16:43:51.490Z,98901.72
2023-04-14T16:46:18.767Z,98907.13
2023-04-14T16:48:46.079Z,98905.16
2023-04-14T16:51:13.571Z,98903.09
2023-04-14T16:53:40.980Z,98907.09
2023-04-14T16:56:08.738Z,98922.56
2023-04-14T16:58:37.093Z,98930.66
2023-04-14T17:01:04.978Z,98932.19
2023-04-14T17:03:32.437Z,98933.72
2023-04-14T17:05:59.811Z,98932.53
2023-04-14T17:08:27.139Z,98934.16
2023-04-14T17:10:54.501Z,98941.81
2023-04-14T17:13:22.113Z,98940.44
2023-04-14T17:15:58.782Z,98930.31
2023-04-14T17:18:33.658Z,98929.84
2023-04-14T17:21:00.984Z,98927.06
2023-04-14T17:23:28.302Z,98937.88
2023-04-14T17:25:56.312Z,98935.53
2023-04-14T17:28:24.058Z,98942.81
2023-04-14T17:30:51.375Z,98936.41
2023-04-14T17:33:19.958Z,98942.28
2023-04-14T17:35:47.293Z,98940.00
2023-04-14T17:38:14.623Z,98946.22
2023-04-14T17:40:41.958Z,98950.84
2023-04-14T17:43:09.323Z,98971.66
2023-04-14T17:45:37.334Z,98974.22
2023-04-14T17:48:05.872Z,98978.50
2023-04-14T17:50:33.846Z,98973.72
2023-04-14T17:53:01.125Z,98976.94
2023-04-14T17:55:28.366Z,98984.69
2023-04-14T17:57:56.248Z,98982.06
2023-04-14T18:00:23.833Z,98981.53
2023-04-14T18:02:51.351Z,98996.19
2023-04-14T18:05:18.741Z,98980.63
2023-04-14T18:07:46.955Z,99000.75
2023-04-14T18:10:14.222Z,99007.59
2023-04-14T18:12:41.840Z,99006.81
2023-04-14T18:15:15.233Z,99004.25
2023-04-14T18:17:43.367Z,99012.34
2023-04-14T18:20:11.209Z,99013.81
2023-04-14T18:22:38.701Z,99023.84
2023-04-14T18:25:06.845Z,99022.94
2023-04-14T18:30:04.634Z,99034.97
2023-04-14T18:32:32.227Z,99036.53
2023-04-14T18:34:59.662Z,99035.16
2023-04-14T18:37:27.831Z,99038.44
2023-04-14T18:39:55.559Z,99038.84
2023-04-14T18:42:22.787Z,99041.38
2023-04-14T18:44:53.638Z,99036.69
2023-04-14T18:47:20.923Z,99048.69
2023-04-14T18:49:48.203Z,99063.91
2023-04-14T18:52:15.530Z,99069.94
2023-04-14T18:54:42.874Z,99072.56
2023-04-14T18:57:10.615Z,99072.22
2023-04-14T18:59:37.933Z,99077.59
2023-04-14T19:02:05.479Z,99072.31
2023-04-14T19:04:32.987Z,99084.25
2023-04-14T19:07:00.269Z,99071.06
2023-04-14T19:09:28.726Z,99083.81
2023-04-14T19:11:57.186Z,99087.16
2023-04-14T19:14:24.436Z,99078.28
2023-04-14T19:16:51.689Z,99090.13
2023-04-14T19:19:19.358Z,99098.78
2023-04-14T19:21:46.865Z,99097.28
2023-04-14T19:24:14.190Z,99090.34
2023-04-14T19:26:41.566Z,99102.13
2023-04-14T19:29:08.843Z,99103.25
2023-04-14T19:31:36.188Z,99111.69
2023-04-14T19:34:03.652Z,99102.41
2023-04-14T19:36:32.404Z,99109.34
2023-04-14T19:39:00.113Z,99113.47
2023-04-14T19:41:28.615Z,99104.19
2023-04-14T19:43:55.939Z,99100.00
2023-04-14T19:46:23.247Z,99104.97
2023-04-14T19:48:50.547Z,99098.53
2023-04-14T19:51:18.325Z,99099.94
2023-04-14T19:53:48.071Z,99105.22
2023-04-14T19:56:15.441Z,99096.88
2023-04-14T19:58:43.428Z,99108.94
2023-04-14T20:01:11.423Z,99107.91
2023-04-14T20:03:38.822Z,99112.97
2023-04-14T20:06:26.643Z,99115.78
2023-04-14T20:08:53.925Z,99118.28
2023-04-14T20:11:21.162Z,99123.50
2023-04-14T20:13:48.455Z,99119.50
2023-04-14T20:16:16.022Z,99129.84
2023-04-14T20:18:45.385Z,99130.34
2023-04-14T20:21:14.142Z,99137.72
2023-04-14T20:23:41.822Z,99133.47
2023-04-14T20:26:10.915Z,99130.19
2023-04-14T20:28:39.891Z,99125.34
2023-04-14T20:31:08.769Z,99133.31
2023-04-14T20:33:36.949Z,99131.91
2023-04-14T20:36:04.213Z,99133.72
2023-04-14T20:38:31.529Z,99124.72
2023-04-14T20:40:59.272Z,99115.56
2023-04-14T20:43:34.248Z,99114.88
2023-04-14T20:46:02.454Z,99133.91
2023-04-14T20:48:30.707Z,99145.09
2023-04-14T20:50:59.608Z,99129.56
2023-04-14T20:53:28.499Z,99139.25
2023-04-14T20:55:56.409Z,99152.16
2023-04-14T20:58:23.795Z,99163.44
2023-04-14T21:00:51.395Z,99162.81
2023-04-14T21:03:18.854Z,99169.53
2023-04-14T21:05:46.357Z,99166.75
2023-04-14T21:08:13.708Z,99161.59
2023-04-14T21:11:14.261Z,99170.66
2023-04-14T21:15:27.223Z,99165.16
2023-04-14T21:16:16.248Z,99164.28
2023-04-14T21:18:43.578Z,99173.03
2023-04-14T21:21:11.528Z,99159.19
2023-04-14T21:23:38.835Z,99167.91
2023-04-14T21:26:06.631Z,99175.50
2023-04-14T21:28:35.464Z,99182.22
2023-04-14T21:31:03.082Z,99177.97
2023-04-14T21:33:33.484Z,99167.03
2023-04-14T21:36:01.885Z,99179.19
2023-04-14T21:38:29.507Z,99168.59
2023-04-14T21:40:56.866Z,99183.00
2023-04-14T21:43:24.254Z,99163.88
2023-04-14T21:45:51.980Z,99173.84
2023-04-14T21:48:19.246Z,99192.59
2023-04-14T21:50:46.712Z,99172.84
2023-04-14T21:53:14.213Z,99189.81
2023-04-14T21:55:42.113Z,99199.22
2023-04-14T21:58:09.406Z,99201.91
2023-04-14T22:00:37.258Z,99198.44
2023-04-14T22:03:04.912Z,99194.97
2023-04-14T22:05:32.410Z,99204.16
2023-04-14T22:07:59.815Z,99199.53
2023-04-14T22:10:32.060Z,99190.47
2023-04-14T22:13:00.511Z,99190.72
2023-04-14T22:15:27.886Z,99201.66
2023-04-14T22:17:55.420Z,99197.75
2023-04-14T22:20:23.818Z,99198.19
2023-04-14T22:22:51.132Z,99198.53
2023-04-14T22:25:18.892Z,99190.16
2023-04-14T22:27:46.387Z,99201.34
2023-04-14T22:30:14.101Z,99194.97
2023-04-14T22:32:41.592Z,99196.97
2023-04-14T22:35:09.058Z,99197.41
2023-04-14T22:37:36.410Z,99202.44
2023-04-14T22:40:04.473Z,99202.78
2023-04-14T22:42:31.792Z,99203.22
2023-04-14T22:44:59.100Z,99207.03
2023-04-14T22:47:26.462Z,99198.63
2023-04-14T22:49:53.775Z,99225.84
2023-04-14T22:52:21.106Z,99225.59
2023-04-14T22:54:48.787Z,99220.50
2023-04-14T22:57:16.172Z,99212.94
2023-04-14T22:59:43.405Z,99232.69
2023-04-14T23:02:11.604Z,99237.47
2023-04-14T23:04:39.435Z,99240.16
2023-04-14T23:07:06.782Z,99240.84
2023-04-14T23:09:34.084Z,99243.59
2023-04-14T23:12:01.950Z,99228.03
2023-04-14T23:14:29.269Z,99222.56
2023-04-14T23:16:56.834Z,99234.97
2023-04-14T23:19:24.132Z,99231.19
2023-04-14T23:21:52.483Z,99229.59
2023-04-14T23:24:20.713Z,99232.97
2023-04-14T23:26:47.952Z,99227.16
2023-04-14T23:29:15.226Z,99233.31
2023-04-14T23:31:42.585Z,99228.50
2023-04-14T23:34:11.027Z,99227.69
2023-04-14T23:36:38.362Z,99225.34
2023-04-14T23:39:05.722Z,99222.22
2023-04-14T23:41:33.073Z,99230.47
2023-04-14T23:44:00.631Z,99216.50
2023-04-14T23:46:27.951Z,99223.34
2023-04-14T23:48:55.685Z,99210.25
2023-04-14T23:51:23.475Z,99221.09
2023-04-14T23:53:50.795Z,99221.88
2023-04-14T23:56:18.141Z,99215.38
2023-04-14T23:58:45.421Z,99209.69
